sensor_id;sensor_type;location;lat;lon;timestamp;temperature;humidity
72106;SHT30;59975;47.646;18.318;2023-03-24T00:01:02;13.33;59.65
72106;SHT30;59975;47.646;18.318;2023-03-24T00:03:29;13.38;59.29
72106;SHT30;59975;47.646;18.318;2023-03-24T00:05:59;13.48;59.15
72106;SHT30;59975;47.646;18.318;2023-03-24T00:08:32;13.50;59.18
72106;SHT30;59975;47.646;18.318;2023-03-24T00:11:10;13.48;59.44
72106;SHT30;59975;47.646;18.318;2023-03-24T00:13:36;13.48;59.70
72106;SHT30;59975;47.646;18.318;2023-03-24T00:16:07;13.50;59.96
72106;SHT30;59975;47.646;18.318;2023-03-24T00:18:34;13.51;59.88
72106;SHT30;59975;47.646;18.318;2023-03-24T00:21:02;13.51;59.83
72106;SHT30;59975;47.646;18.318;2023-03-24T00:23:28;13.44;59.83
72106;SHT30;59975;47.646;18.318;2023-03-24T00:26:11;13.44;60.39
72106;SHT30;59975;47.646;18.318;2023-03-24T00:28:44;13.43;60.45
72106;SHT30;59975;47.646;18.318;2023-03-24T00:31:11;13.43;60.18
72106;SHT30;59975;47.646;18.318;2023-03-24T00:33:39;13.38;60.48
72106;SHT30;59975;47.646;18.318;2023-03-24T00:36:07;13.37;60.23
72106;SHT30;59975;47.646;18.318;2023-03-24T00:38:37;13.33;60.43
72106;SHT30;59975;47.646;18.318;2023-03-24T00:41:05;13.31;60.40
72106;SHT30;59975;47.646;18.318;2023-03-24T00:43:32;13.27;60.88
72106;SHT30;59975;47.646;18.318;2023-03-24T00:45:59;13.20;61.01
72106;SHT30;59975;47.646;18.318;2023-03-24T00:48:27;13.13;61.08
72106;SHT30;59975;47.646;18.318;2023-03-24T00:50:53;13.16;60.93
72106;SHT30;59975;47.646;18.318;2023-03-24T00:53:20;13.13;61.00
72106;SHT30;59975;47.646;18.318;2023-03-24T00:55:53;13.07;61.16
72106;SHT30;59975;47.646;18.318;2023-03-24T00:58:19;13.07;61.08
72106;SHT30;59975;47.646;18.318;2023-03-24T01:00:50;13.04;61.25
72106;SHT30;59975;47.646;18.318;2023-03-24T01:03:19;13.06;60.82
72106;SHT30;59975;47.646;18.318;2023-03-24T01:05:47;13.07;60.72
72106;SHT30;59975;47.646;18.318;2023-03-24T01:08:17;13.02;60.68
72106;SHT30;59975;47.646;18.318;2023-03-24T01:10:46;13.03;60.78
72106;SHT30;59975;47.646;18.318;2023-03-24T01:13:21;13.03;60.44
72106;SHT30;59975;47.646;18.318;2023-03-24T01:15:47;13.02;60.36
72106;SHT30;59975;47.646;18.318;2023-03-24T01:18:13;13.02;60.28
72106;SHT30;59975;47.646;18.318;2023-03-24T01:20:40;13.13;59.80
72106;SHT30;59975;47.646;18.318;2023-03-24T01:23:06;13.16;59.80
72106;SHT30;59975;47.646;18.318;2023-03-24T01:25:34;13.16;59.56
72106;SHT30;59975;47.646;18.318;2023-03-24T01:28:03;13.23;59.36
72106;SHT30;59975;47.646;18.318;2023-03-24T01:30:29;13.26;59.43
72106;SHT30;59975;47.646;18.318;2023-03-24T01:32:56;13.21;59.36
72106;SHT30;59975;47.646;18.318;2023-03-24T01:35:23;13.17;59.54
72106;SHT30;59975;47.646;18.318;2023-03-24T01:37:50;13.11;59.63
72106;SHT30;59975;47.646;18.318;2023-03-24T01:40:19;13.16;59.49
72106;SHT30;59975;47.646;18.318;2023-03-24T01:42:45;13.18;59.23
72106;SHT30;59975;47.646;18.318;2023-03-24T01:47:58;13.08;59.58
72106;SHT30;59975;47.646;18.318;2023-03-24T01:50:24;13.08;59.59
72106;SHT30;59975;47.646;18.318;2023-03-24T01:52:49;13.08;59.46
72106;SHT30;59975;47.646;18.318;2023-03-24T01:55:16;13.11;59.17
72106;SHT30;59975;47.646;18.318;2023-03-24T01:57:50;13.10;59.41
72106;SHT30;59975;47.646;18.318;2023-03-24T02:00:19;13.03;59.42
72106;SHT30;59975;47.646;18.318;2023-03-24T02:02:53;13.03;59.56
72106;SHT30;59975;47.646;18.318;2023-03-24T02:05:25;13.07;59.29
72106;SHT30;59975;47.646;18.318;2023-03-24T02:08:30;13.02;59.48
72106;SHT30;59975;47.646;18.318;2023-03-24T02:10:58;13.03;59.35
72106;SHT30;59975;47.646;18.318;2023-03-24T02:13:25;13.00;59.70
72106;SHT30;59975;47.646;18.318;2023-03-24T02:16:07;12.99;59.64
72106;SHT30;59975;47.646;18.318;2023-03-24T02:24:25;12.96;59.70
72106;SHT30;59975;47.646;18.318;2023-03-24T02:32:23;12.99;59.51
72106;SHT30;59975;47.646;18.318;2023-03-24T02:45:38;12.63;60.60
72106;SHT30;59975;47.646;18.318;2023-03-24T02:51:13;12.63;61.00
72106;SHT30;59975;47.646;18.318;2023-03-24T02:59:18;12.25;62.01
72106;SHT30;59975;47.646;18.318;2023-03-24T03:02:01;12.28;61.60
72106;SHT30;59975;47.646;18.318;2023-03-24T03:04:36;12.35;61.19
72106;SHT30;59975;47.646;18.318;2023-03-24T03:07:06;12.36;61.17
72106;SHT30;59975;47.646;18.318;2023-03-24T03:09:41;12.28;61.29
72106;SHT30;59975;47.646;18.318;2023-03-24T03:12:09;12.22;61.66
72106;SHT30;59975;47.646;18.318;2023-03-24T03:14:59;12.22;61.72
72106;SHT30;59975;47.646;18.318;2023-03-24T03:17:36;12.20;61.82
72106;SHT30;59975;47.646;18.318;2023-03-24T03:20:22;12.25;61.75
72106;SHT30;59975;47.646;18.318;2023-03-24T03:23:00;12.22;62.00
72106;SHT30;59975;47.646;18.318;2023-03-24T03:25:33;12.12;62.22
72106;SHT30;59975;47.646;18.318;2023-03-24T03:28:02;12.12;62.38
72106;SHT30;59975;47.646;18.318;2023-03-24T03:30:37;12.04;62.51
72106;SHT30;59975;47.646;18.318;2023-03-24T03:33:26;12.06;62.86
72106;SHT30;59975;47.646;18.318;2023-03-24T03:39:09;12.08;62.73
72106;SHT30;59975;47.646;18.318;2023-03-24T03:41:39;12.05;63.05
72106;SHT30;59975;47.646;18.318;2023-03-24T03:44:05;11.98;63.25
72106;SHT30;59975;47.646;18.318;2023-03-24T03:46:31;11.94;63.49
72106;SHT30;59975;47.646;18.318;2023-03-24T03:48:57;11.91;63.68
72106;SHT30;59975;47.646;18.318;2023-03-24T03:51:22;11.88;63.74
72106;SHT30;59975;47.646;18.318;2023-03-24T03:53:55;11.87;63.84
72106;SHT30;59975;47.646;18.318;2023-03-24T03:56:26;11.81;64.32
72106;SHT30;59975;47.646;18.318;2023-03-24T03:58:52;11.80;64.18
72106;SHT30;59975;47.646;18.318;2023-03-24T04:01:23;11.75;64.38
72106;SHT30;59975;47.646;18.318;2023-03-24T04:04:01;11.74;64.27
72106;SHT30;59975;47.646;18.318;2023-03-24T04:06:45;11.80;64.08
72106;SHT30;59975;47.646;18.318;2023-03-24T04:09:39;11.87;63.65
72106;SHT30;59975;47.646;18.318;2023-03-24T04:20:42;11.85;63.65
72106;SHT30;59975;47.646;18.318;2023-03-24T04:25:48;11.88;63.46
72106;SHT30;59975;47.646;18.318;2023-03-24T04:31:31;11.94;63.28
72106;SHT30;59975;47.646;18.318;2023-03-24T04:34:22;11.97;63.28
72106;SHT30;59975;47.646;18.318;2023-03-24T04:36:57;12.01;62.89
72106;SHT30;59975;47.646;18.318;2023-03-24T04:39:30;12.04;62.66
72106;SHT30;59975;47.646;18.318;2023-03-24T04:42:01;12.11;62.30
72106;SHT30;59975;47.646;18.318;2023-03-24T04:44:28;12.10;62.96
72106;SHT30;59975;47.646;18.318;2023-03-24T04:46:58;12.04;68.49
72106;SHT30;59975;47.646;18.318;2023-03-24T04:49:24;11.99;66.95
72106;SHT30;59975;47.646;18.318;2023-03-24T04:51:50;11.81;66.64
72106;SHT30;59975;47.646;18.318;2023-03-24T04:54:17;11.69;66.61
72106;SHT30;59975;47.646;18.318;2023-03-24T04:56:45;11.64;66.34
72106;SHT30;59975;47.646;18.318;2023-03-24T04:59:13;11.66;66.11
72106;SHT30;59975;47.646;18.318;2023-03-24T05:01:40;11.54;66.78
72106;SHT30;59975;47.646;18.318;2023-03-24T05:04:14;11.51;66.85
72106;SHT30;59975;47.646;18.318;2023-03-24T05:06:40;11.40;67.45
72106;SHT30;59975;47.646;18.318;2023-03-24T05:09:06;11.31;67.56
72106;SHT30;59975;47.646;18.318;2023-03-24T05:11:32;11.34;67.17
72106;SHT30;59975;47.646;18.318;2023-03-24T05:13:57;11.40;66.51
72106;SHT30;59975;47.646;18.318;2023-03-24T05:16:23;11.46;66.45
72106;SHT30;59975;47.646;18.318;2023-03-24T05:18:48;11.67;64.75
72106;SHT30;59975;47.646;18.318;2023-03-24T05:21:14;11.77;64.20
72106;SHT30;59975;47.646;18.318;2023-03-24T05:23:39;11.90;63.93
72106;SHT30;59975;47.646;18.318;2023-03-24T05:26:06;12.06;63.80
72106;SHT30;59975;47.646;18.318;2023-03-24T05:28:31;12.08;63.64
72106;SHT30;59975;47.646;18.318;2023-03-24T05:30:57;12.21;63.20
72106;SHT30;59975;47.646;18.318;2023-03-24T05:33:22;12.25;63.49
72106;SHT30;59975;47.646;18.318;2023-03-24T05:35:48;12.36;62.83
72106;SHT30;59975;47.646;18.318;2023-03-24T05:38:13;12.39;65.43
72106;SHT30;59975;47.646;18.318;2023-03-24T05:40:39;12.41;67.81
72106;SHT30;59975;47.646;18.318;2023-03-24T05:43:05;12.46;65.14
72106;SHT30;59975;47.646;18.318;2023-03-24T05:45:32;12.49;66.32
72106;SHT30;59975;47.646;18.318;2023-03-24T05:47:58;12.49;69.52
72106;SHT30;59975;47.646;18.318;2023-03-24T05:50:24;12.55;67.07
72106;SHT30;59975;47.646;18.318;2023-03-24T05:52:50;12.65;65.39
72106;SHT30;59975;47.646;18.318;2023-03-24T05:55:17;12.72;63.15
72106;SHT30;59975;47.646;18.318;2023-03-24T05:57:43;12.83;62.30
72106;SHT30;59975;47.646;18.318;2023-03-24T06:00:10;12.89;62.19
72106;SHT30;59975;47.646;18.318;2023-03-24T06:02:44;13.02;61.50
72106;SHT30;59975;47.646;18.318;2023-03-24T06:05:10;13.14;61.56
72106;SHT30;59975;47.646;18.318;2023-03-24T06:07:37;13.28;61.05
72106;SHT30;59975;47.646;18.318;2023-03-24T06:10:03;13.44;64.03
72106;SHT30;59975;47.646;18.318;2023-03-24T06:12:32;13.50;65.20
72106;SHT30;59975;47.646;18.318;2023-03-24T06:14:58;13.61;66.16
72106;SHT30;59975;47.646;18.318;2023-03-24T06:17:25;13.62;69.33
72106;SHT30;59975;47.646;18.318;2023-03-24T06:19:53;13.64;69.59
72106;SHT30;59975;47.646;18.318;2023-03-24T06:22:28;13.68;68.37
72106;SHT30;59975;47.646;18.318;2023-03-24T06:24:54;13.81;70.03
72106;SHT30;59975;47.646;18.318;2023-03-24T06:27:26;13.91;70.53
72106;SHT30;59975;47.646;18.318;2023-03-24T06:40:11;14.06;68.36
72106;SHT30;59975;47.646;18.318;2023-03-24T06:42:43;14.25;67.54
72106;SHT30;59975;47.646;18.318;2023-03-24T06:45:17;14.34;66.40
72106;SHT30;59975;47.646;18.318;2023-03-24T06:48:06;14.56;65.27
72106;SHT30;59975;47.646;18.318;2023-03-24T07:04:33;15.61;56.88
72106;SHT30;59975;47.646;18.318;2023-03-24T07:07:24;15.98;56.56
72106;SHT30;59975;47.646;18.318;2023-03-24T07:09:52;16.03;56.67
72106;SHT30;59975;47.646;18.318;2023-03-24T07:12:20;16.22;56.06
72106;SHT30;59975;47.646;18.318;2023-03-24T07:18:05;16.23;55.77
72106;SHT30;59975;47.646;18.318;2023-03-24T07:20:31;16.32;54.52
72106;SHT30;59975;47.646;18.318;2023-03-24T07:23:10;16.44;53.46
72106;SHT30;59975;47.646;18.318;2023-03-24T07:25:57;16.47;53.01
72106;SHT30;59975;47.646;18.318;2023-03-24T08:04:40;17.39;52.31
72106;SHT30;59975;47.646;18.318;2023-03-24T08:07:26;17.61;50.71
72106;SHT30;59975;47.646;18.318;2023-03-24T08:13:15;17.72;50.81
72106;SHT30;59975;47.646;18.318;2023-03-24T08:16:02;17.72;50.83
72106;SHT30;59975;47.646;18.318;2023-03-24T08:18:29;17.72;50.65
72106;SHT30;59975;47.646;18.318;2023-03-24T08:20:57;17.62;50.86
72106;SHT30;59975;47.646;18.318;2023-03-24T08:23:33;17.66;51.55
72106;SHT30;59975;47.646;18.318;2023-03-24T08:26:16;17.63;49.81
72106;SHT30;59975;47.646;18.318;2023-03-24T08:32:48;17.69;50.97
72106;SHT30;59975;47.646;18.318;2023-03-24T08:35:17;17.76;49.54
72106;SHT30;59975;47.646;18.318;2023-03-24T08:37:45;17.82;49.54
72106;SHT30;59975;47.646;18.318;2023-03-24T08:40:15;18.01;49.11
72106;SHT30;59975;47.646;18.318;2023-03-24T08:42:46;18.17;49.19
72106;SHT30;59975;47.646;18.318;2023-03-24T08:45:19;18.38;49.84
72106;SHT30;59975;47.646;18.318;2023-03-24T08:51:38;18.72;49.20
72106;SHT30;59975;47.646;18.318;2023-03-24T08:54:21;18.88;47.28
72106;SHT30;59975;47.646;18.318;2023-03-24T08:56:51;18.75;47.66
72106;SHT30;59975;47.646;18.318;2023-03-24T08:59:20;18.96;47.16
72106;SHT30;59975;47.646;18.318;2023-03-24T09:02:07;18.98;46.73
72106;SHT30;59975;47.646;18.318;2023-03-24T09:07:21;18.84;47.36
72106;SHT30;59975;47.646;18.318;2023-03-24T09:27:28;19.16;46.54
72106;SHT30;59975;47.646;18.318;2023-03-24T10:20:50;19.57;46.11
72106;SHT30;59975;47.646;18.318;2023-03-24T10:23:44;19.55;46.05
72106;SHT30;59975;47.646;18.318;2023-03-24T10:29:30;19.76;45.78
72106;SHT30;59975;47.646;18.318;2023-03-24T10:31:59;19.77;46.32
72106;SHT30;59975;47.646;18.318;2023-03-24T10:34:50;19.80;45.75
72106;SHT30;59975;47.646;18.318;2023-03-24T11:28:40;22.55;38.84
72106;SHT30;59975;47.646;18.318;2023-03-24T11:31:55;22.75;39.05
72106;SHT30;59975;47.646;18.318;2023-03-24T11:38:27;22.77;39.02
72106;SHT30;59975;47.646;18.318;2023-03-24T11:41:01;23.09;38.36
72106;SHT30;59975;47.646;18.318;2023-03-24T11:43:45;23.31;38.49
72106;SHT30;59975;47.646;18.318;2023-03-24T11:46:26;23.39;37.76
72106;SHT30;59975;47.646;18.318;2023-03-24T11:49:01;23.55;37.90
72106;SHT30;59975;47.646;18.318;2023-03-24T11:51:33;23.61;37.01
72106;SHT30;59975;47.646;18.318;2023-03-24T11:54:02;23.74;37.34
72106;SHT30;59975;47.646;18.318;2023-03-24T11:56:36;23.81;36.88
72106;SHT30;59975;47.646;18.318;2023-03-24T11:59:32;23.97;36.83
72106;SHT30;59975;47.646;18.318;2023-03-24T12:51:36;24.12;36.35
72106;SHT30;59975;47.646;18.318;2023-03-24T12:57:18;24.51;35.44
72106;SHT30;59975;47.646;18.318;2023-03-24T13:00:17;24.49;35.87
72106;SHT30;59975;47.646;18.318;2023-03-24T13:02:48;24.48;34.89
72106;SHT30;59975;47.646;18.318;2023-03-24T13:05:21;24.14;35.79
72106;SHT30;59975;47.646;18.318;2023-03-24T13:07:49;24.11;36.29
72106;SHT30;59975;47.646;18.318;2023-03-24T13:10:25;24.22;36.10
72106;SHT30;59975;47.646;18.318;2023-03-24T13:15:40;24.09;36.11
72106;SHT30;59975;47.646;18.318;2023-03-24T13:29:24;23.79;36.05
72106;SHT30;59975;47.646;18.318;2023-03-24T13:34:34;24.05;35.78
72106;SHT30;59975;47.646;18.318;2023-03-24T13:37:04;24.05;35.19
72106;SHT30;59975;47.646;18.318;2023-03-24T13:39:33;24.00;34.48
72106;SHT30;59975;47.646;18.318;2023-03-24T13:42:00;24.04;34.86
72106;SHT30;59975;47.646;18.318;2023-03-24T13:47:13;23.98;35.53
72106;SHT30;59975;47.646;18.318;2023-03-24T13:50:06;24.15;34.72
72106;SHT30;59975;47.646;18.318;2023-03-24T13:52:42;24.21;35.27
72106;SHT30;59975;47.646;18.318;2023-03-24T13:55:15;24.37;34.59
72106;SHT30;59975;47.646;18.318;2023-03-24T13:57:56;24.43;36.35
72106;SHT30;59975;47.646;18.318;2023-03-24T14:00:23;24.25;35.48
72106;SHT30;59975;47.646;18.318;2023-03-24T14:03:13;24.14;35.45
72106;SHT30;59975;47.646;18.318;2023-03-24T14:10:59;24.05;36.57
72106;SHT30;59975;47.646;18.318;2023-03-24T14:13:36;23.97;36.48
72106;SHT30;59975;47.646;18.318;2023-03-24T14:21:39;23.95;36.05
72106;SHT30;59975;47.646;18.318;2023-03-24T14:24:15;23.85;35.96
72106;SHT30;59975;47.646;18.318;2023-03-24T14:26:42;23.72;36.17
72106;SHT30;59975;47.646;18.318;2023-03-24T14:29:40;23.61;36.51
72106;SHT30;59975;47.646;18.318;2023-03-24T14:32:16;23.57;36.86
72106;SHT30;59975;47.646;18.318;2023-03-24T14:34:55;23.46;37.41
72106;SHT30;59975;47.646;18.318;2023-03-24T14:37:23;23.47;37.95
72106;SHT30;59975;47.646;18.318;2023-03-24T14:39:50;23.30;37.66
72106;SHT30;59975;47.646;18.318;2023-03-24T14:44:58;23.17;39.46
72106;SHT30;59975;47.646;18.318;2023-03-24T14:47:29;23.13;39.16
72106;SHT30;59975;47.646;18.318;2023-03-24T14:49:57;23.23;39.41
72106;SHT30;59975;47.646;18.318;2023-03-24T14:52:59;23.07;39.61
72106;SHT30;59975;47.646;18.318;2023-03-24T14:55:26;22.83;39.53
72106;SHT30;59975;47.646;18.318;2023-03-24T14:58:05;22.65;40.67
72106;SHT30;59975;47.646;18.318;2023-03-24T15:00:39;22.62;40.46
72106;SHT30;59975;47.646;18.318;2023-03-24T15:05:49;22.38;41.08
72106;SHT30;59975;47.646;18.318;2023-03-24T15:08:22;22.35;41.59
72106;SHT30;59975;47.646;18.318;2023-03-24T15:11:04;22.28;40.11
72106;SHT30;59975;47.646;18.318;2023-03-24T15:13:39;22.28;40.14
72106;SHT30;59975;47.646;18.318;2023-03-24T15:18:40;22.39;39.75
72106;SHT30;59975;47.646;18.318;2023-03-24T15:21:19;22.46;39.90
72106;SHT30;59975;47.646;18.318;2023-03-24T15:23:46;22.49;40.37
72106;SHT30;59975;47.646;18.318;2023-03-24T15:26:13;22.25;40.48
72106;SHT30;59975;47.646;18.318;2023-03-24T15:28:40;22.16;40.84
72106;SHT30;59975;47.646;18.318;2023-03-24T15:31:06;22.11;40.80
72106;SHT30;59975;47.646;18.318;2023-03-24T15:33:42;22.01;41.65
72106;SHT30;59975;47.646;18.318;2023-03-24T15:36:19;21.85;41.03
72106;SHT30;59975;47.646;18.318;2023-03-24T15:38:47;21.81;40.84
72106;SHT30;59975;47.646;18.318;2023-03-24T15:41:16;21.54;41.43
72106;SHT30;59975;47.646;18.318;2023-03-24T15:43:48;21.50;41.74
72106;SHT30;59975;47.646;18.318;2023-03-24T15:48:50;21.37;42.10
72106;SHT30;59975;47.646;18.318;2023-03-24T15:51:16;21.26;42.55
72106;SHT30;59975;47.646;18.318;2023-03-24T15:53:54;21.19;43.13
72106;SHT30;59975;47.646;18.318;2023-03-24T15:56:29;21.10;43.10
72106;SHT30;59975;47.646;18.318;2023-03-24T15:59:06;21.04;43.17
72106;SHT30;59975;47.646;18.318;2023-03-24T16:01:33;21.00;43.36
72106;SHT30;59975;47.646;18.318;2023-03-24T16:04:07;21.06;43.74
72106;SHT30;59975;47.646;18.318;2023-03-24T16:06:39;21.02;43.66
72106;SHT30;59975;47.646;18.318;2023-03-24T16:09:12;20.98;43.49
72106;SHT30;59975;47.646;18.318;2023-03-24T16:11:38;20.93;43.83
72106;SHT30;59975;47.646;18.318;2023-03-24T16:14:24;20.92;43.94
72106;SHT30;59975;47.646;18.318;2023-03-24T16:16:57;20.86;44.38
72106;SHT30;59975;47.646;18.318;2023-03-24T16:19:23;20.73;44.55
72106;SHT30;59975;47.646;18.318;2023-03-24T16:21:49;20.65;44.87
72106;SHT30;59975;47.646;18.318;2023-03-24T16:24:15;20.58;45.48
72106;SHT30;59975;47.646;18.318;2023-03-24T16:26:41;20.45;45.77
72106;SHT30;59975;47.646;18.318;2023-03-24T16:31:42;20.32;46.13
72106;SHT30;59975;47.646;18.318;2023-03-24T16:34:08;20.27;46.62
72106;SHT30;59975;47.646;18.318;2023-03-24T16:36:34;20.21;46.93
72106;SHT30;59975;47.646;18.318;2023-03-24T16:39:00;20.28;46.49
72106;SHT30;59975;47.646;18.318;2023-03-24T16:41:27;20.28;46.33
72106;SHT30;59975;47.646;18.318;2023-03-24T16:43:52;20.21;46.37
72106;SHT30;59975;47.646;18.318;2023-03-24T16:46:29;20.10;46.88
72106;SHT30;59975;47.646;18.318;2023-03-24T16:48:54;20.00;47.21
72106;SHT30;59975;47.646;18.318;2023-03-24T16:51:20;20.00;47.10
72106;SHT30;59975;47.646;18.318;2023-03-24T16:53:47;19.93;47.55
72106;SHT30;59975;47.646;18.318;2023-03-24T16:56:15;19.93;47.35
72106;SHT30;59975;47.646;18.318;2023-03-24T16:58:41;19.69;47.93
72106;SHT30;59975;47.646;18.318;2023-03-24T17:01:28;19.60;48.22
72106;SHT30;59975;47.646;18.318;2023-03-24T17:04:14;19.53;48.40
72106;SHT30;59975;47.646;18.318;2023-03-24T17:06:43;19.39;48.75
72106;SHT30;59975;47.646;18.318;2023-03-24T17:09:09;19.30;49.12
72106;SHT30;59975;47.646;18.318;2023-03-24T17:11:37;19.25;49.32
72106;SHT30;59975;47.646;18.318;2023-03-24T17:14:04;19.16;49.67
72106;SHT30;59975;47.646;18.318;2023-03-24T17:16:33;19.06;50.00
72106;SHT30;59975;47.646;18.318;2023-03-24T17:19:05;18.98;50.32
72106;SHT30;59975;47.646;18.318;2023-03-24T17:21:32;18.92;50.72
72106;SHT30;59975;47.646;18.318;2023-03-24T17:23:59;18.89;51.02
72106;SHT30;59975;47.646;18.318;2023-03-24T17:26:24;18.85;51.21
72106;SHT30;59975;47.646;18.318;2023-03-24T17:28:50;18.71;51.67
72106;SHT30;59975;47.646;18.318;2023-03-24T17:31:16;18.57;52.21
72106;SHT30;59975;47.646;18.318;2023-03-24T17:33:42;18.51;52.12
72106;SHT30;59975;47.646;18.318;2023-03-24T17:36:13;18.30;53.06
72106;SHT30;59975;47.646;18.318;2023-03-24T17:38:38;18.13;53.46
72106;SHT30;59975;47.646;18.318;2023-03-24T17:41:05;17.99;54.05
72106;SHT30;59975;47.646;18.318;2023-03-24T17:43:30;17.93;53.79
72106;SHT30;59975;47.646;18.318;2023-03-24T17:46:00;17.87;53.91
72106;SHT30;59975;47.646;18.318;2023-03-24T17:48:27;17.94;54.03
72106;SHT30;59975;47.646;18.318;2023-03-24T17:50:53;17.90;54.00
72106;SHT30;59975;47.646;18.318;2023-03-24T17:53:20;17.97;54.71
72106;SHT30;59975;47.646;18.318;2023-03-24T17:56:00;18.07;54.08
72106;SHT30;59975;47.646;18.318;2023-03-24T17:58:31;17.99;55.30
72106;SHT30;59975;47.646;18.318;2023-03-24T18:00:57;17.90;56.00
72106;SHT30;59975;47.646;18.318;2023-03-24T18:03:24;18.01;55.97
72106;SHT30;59975;47.646;18.318;2023-03-24T18:05:54;17.93;56.63
72106;SHT30;59975;47.646;18.318;2023-03-24T18:08:20;17.83;56.99
72106;SHT30;59975;47.646;18.318;2023-03-24T18:10:45;17.77;57.18
72106;SHT30;59975;47.646;18.318;2023-03-24T18:13:11;17.75;57.23
72106;SHT30;59975;47.646;18.318;2023-03-24T18:15:40;17.66;57.21
72106;SHT30;59975;47.646;18.318;2023-03-24T18:18:05;17.65;57.09
72106;SHT30;59975;47.646;18.318;2023-03-24T18:20:31;17.70;57.14
72106;SHT30;59975;47.646;18.318;2023-03-24T18:22:56;17.73;57.24
72106;SHT30;59975;47.646;18.318;2023-03-24T18:25:22;17.73;57.04
72106;SHT30;59975;47.646;18.318;2023-03-24T18:27:47;17.72;56.07
72106;SHT30;59975;47.646;18.318;2023-03-24T18:30:14;17.75;56.68
72106;SHT30;59975;47.646;18.318;2023-03-24T18:32:41;17.76;56.82
72106;SHT30;59975;47.646;18.318;2023-03-24T18:35:09;17.70;56.54
72106;SHT30;59975;47.646;18.318;2023-03-24T18:37:35;17.67;56.57
72106;SHT30;59975;47.646;18.318;2023-03-24T18:40:01;17.73;56.55
72106;SHT30;59975;47.646;18.318;2023-03-24T18:42:27;17.77;56.68
72106;SHT30;59975;47.646;18.318;2023-03-24T18:44:52;17.80;56.79
72106;SHT30;59975;47.646;18.318;2023-03-24T18:47:19;17.85;56.75
72106;SHT30;59975;47.646;18.318;2023-03-24T18:49:44;17.85;56.99
72106;SHT30;59975;47.646;18.318;2023-03-24T18:52:10;17.85;57.53
72106;SHT30;59975;47.646;18.318;2023-03-24T18:54:39;17.62;58.54
72106;SHT30;59975;47.646;18.318;2023-03-24T18:57:04;17.63;59.35
72106;SHT30;59975;47.646;18.318;2023-03-24T18:59:30;17.62;59.39
72106;SHT30;59975;47.646;18.318;2023-03-24T19:01:55;17.50;59.24
72106;SHT30;59975;47.646;18.318;2023-03-24T19:04:21;17.14;59.20
72106;SHT30;59975;47.646;18.318;2023-03-24T19:06:46;17.01;59.53
72106;SHT30;59975;47.646;18.318;2023-03-24T19:09:14;16.83;59.74
72106;SHT30;59975;47.646;18.318;2023-03-24T19:11:44;16.75;60.25
72106;SHT30;59975;47.646;18.318;2023-03-24T19:14:10;16.73;60.27
72106;SHT30;59975;47.646;18.318;2023-03-24T19:16:36;16.71;60.41
72106;SHT30;59975;47.646;18.318;2023-03-24T19:19:02;16.68;60.32
72106;SHT30;59975;47.646;18.318;2023-03-24T19:21:28;16.60;60.80
72106;SHT30;59975;47.646;18.318;2023-03-24T19:23:53;16.53;60.98
72106;SHT30;59975;47.646;18.318;2023-03-24T19:26:19;16.54;61.28
72106;SHT30;59975;47.646;18.318;2023-03-24T19:28:45;16.46;61.78
72106;SHT30;59975;47.646;18.318;2023-03-24T19:31:13;16.44;61.95
72106;SHT30;59975;47.646;18.318;2023-03-24T19:33:40;16.39;62.19
72106;SHT30;59975;47.646;18.318;2023-03-24T19:36:06;16.39;62.26
72106;SHT30;59975;47.646;18.318;2023-03-24T19:38:34;16.39;62.54
72106;SHT30;59975;47.646;18.318;2023-03-24T19:41:03;16.22;62.98
72106;SHT30;59975;47.646;18.318;2023-03-24T19:43:29;16.19;63.29
72106;SHT30;59975;47.646;18.318;2023-03-24T19:45:55;16.06;63.76
72106;SHT30;59975;47.646;18.318;2023-03-24T19:48:21;16.08;63.78
72106;SHT30;59975;47.646;18.318;2023-03-24T19:50:52;16.05;64.03
72106;SHT30;59975;47.646;18.318;2023-03-24T19:53:18;16.06;64.07
72106;SHT30;59975;47.646;18.318;2023-03-24T19:55:44;15.92;64.53
72106;SHT30;59975;47.646;18.318;2023-03-24T19:58:11;15.86;65.04
72106;SHT30;59975;47.646;18.318;2023-03-24T20:00:36;15.85;65.14
72106;SHT30;59975;47.646;18.318;2023-03-24T20:03:02;15.90;64.95
72106;SHT30;59975;47.646;18.318;2023-03-24T20:05:28;15.95;65.05
72106;SHT30;59975;47.646;18.318;2023-03-24T20:08:02;15.93;65.12
72106;SHT30;59975;47.646;18.318;2023-03-24T20:10:27;15.89;65.37
72106;SHT30;59975;47.646;18.318;2023-03-24T20:12:53;15.89;65.57
72106;SHT30;59975;47.646;18.318;2023-03-24T20:15:19;15.82;66.03
72106;SHT30;59975;47.646;18.318;2023-03-24T20:17:44;15.82;66.25
72106;SHT30;59975;47.646;18.318;2023-03-24T20:20:12;15.75;66.57
72106;SHT30;59975;47.646;18.318;2023-03-24T20:22:38;15.73;66.94
72106;SHT30;59975;47.646;18.318;2023-03-24T20:25:09;15.62;67.71
72106;SHT30;59975;47.646;18.318;2023-03-24T20:27:36;15.57;68.33
72106;SHT30;59975;47.646;18.318;2023-03-24T20:30:02;15.48;68.88
72106;SHT30;59975;47.646;18.318;2023-03-24T20:32:28;15.41;69.45
72106;SHT30;59975;47.646;18.318;2023-03-24T20:34:53;15.32;69.86
72106;SHT30;59975;47.646;18.318;2023-03-24T20:37:19;15.24;70.35
72106;SHT30;59975;47.646;18.318;2023-03-24T20:39:45;15.20;70.55
72106;SHT30;59975;47.646;18.318;2023-03-24T20:42:10;15.18;70.71
72106;SHT30;59975;47.646;18.318;2023-03-24T20:44:36;15.18;70.73
72106;SHT30;59975;47.646;18.318;2023-03-24T20:47:01;15.14;71.14
72106;SHT30;59975;47.646;18.318;2023-03-24T20:49:28;15.12;71.29
72106;SHT30;59975;47.646;18.318;2023-03-24T20:51:54;15.07;71.51
72106;SHT30;59975;47.646;18.318;2023-03-24T20:54:26;14.97;71.92
72106;SHT30;59975;47.646;18.318;2023-03-24T20:56:52;14.87;72.34
72106;SHT30;59975;47.646;18.318;2023-03-24T20:59:18;14.84;72.50
72106;SHT30;59975;47.646;18.318;2023-03-24T21:01:43;14.93;72.40
72106;SHT30;59975;47.646;18.318;2023-03-24T21:04:13;14.90;72.49
72106;SHT30;59975;47.646;18.318;2023-03-24T21:06:38;14.81;72.81
72106;SHT30;59975;47.646;18.318;2023-03-24T21:09:04;14.93;72.42
72106;SHT30;59975;47.646;18.318;2023-03-24T21:11:30;14.90;72.46
72106;SHT30;59975;47.646;18.318;2023-03-24T21:13:57;14.87;72.64
72106;SHT30;59975;47.646;18.318;2023-03-24T21:16:23;14.80;72.81
72106;SHT30;59975;47.646;18.318;2023-03-24T21:18:50;14.79;72.79
72106;SHT30;59975;47.646;18.318;2023-03-24T21:21:18;14.80;72.96
72106;SHT30;59975;47.646;18.318;2023-03-24T21:23:44;14.90;72.55
72106;SHT30;59975;47.646;18.318;2023-03-24T21:26:15;14.96;72.68